sensor_id;sensor_type;location;lat;lon;timestamp;temperature;humidity
28763;DHT22;15918;51.270;6.522;2023-12-20T00:00:25;10.80;80.80
28763;DHT22;15918;51.270;6.522;2023-12-20T00:02:51;10.70;80.80
28763;DHT22;15918;51.270;6.522;2023-12-20T00:05:16;10.90;80.90
28763;DHT22;15918;51.270;6.522;2023-12-20T00:07:42;10.70;80.80
28763;DHT22;15918;51.270;6.522;2023-12-20T00:10:08;10.70;80.80
28763;DHT22;15918;51.270;6.522;2023-12-20T00:12:34;10.70;80.70
28763;DHT22;15918;51.270;6.522;2023-12-20T00:14:59;10.70;80.70
28763;DHT22;15918;51.270;6.522;2023-12-20T00:17:25;10.70;80.70
28763;DHT22;15918;51.270;6.522;2023-12-20T00:19:50;10.80;80.80
28763;DHT22;15918;51.270;6.522;2023-12-20T00:22:16;10.70;80.80
28763;DHT22;15918;51.270;6.522;2023-12-20T00:24:41;10.70;80.80
28763;DHT22;15918;51.270;6.522;2023-12-20T00:27:07;10.70;80.80
28763;DHT22;15918;51.270;6.522;2023-12-20T00:29:32;10.70;80.90
28763;DHT22;15918;51.270;6.522;2023-12-20T00:31:58;10.70;80.80
28763;DHT22;15918;51.270;6.522;2023-12-20T00:34:23;10.70;80.80
28763;DHT22;15918;51.270;6.522;2023-12-20T00:36:49;10.70;80.70
28763;DHT22;15918;51.270;6.522;2023-12-20T00:39:15;10.70;80.70
28763;DHT22;15918;51.270;6.522;2023-12-20T00:41:40;10.70;80.60
28763;DHT22;15918;51.270;6.522;2023-12-20T00:44:06;10.70;80.50
28763;DHT22;15918;51.270;6.522;2023-12-20T00:46:31;10.70;80.50
28763;DHT22;15918;51.270;6.522;2023-12-20T00:48:57;10.70;80.50
28763;DHT22;15918;51.270;6.522;2023-12-20T00:51:23;10.70;80.50
28763;DHT22;15918;51.270;6.522;2023-12-20T00:53:50;10.70;80.70
28763;DHT22;15918;51.270;6.522;2023-12-20T00:56:15;10.70;80.40
28763;DHT22;15918;51.270;6.522;2023-12-20T00:58:41;10.70;80.30
28763;DHT22;15918;51.270;6.522;2023-12-20T01:01:07;10.70;80.30
28763;DHT22;15918;51.270;6.522;2023-12-20T01:03:32;10.70;80.30
28763;DHT22;15918;51.270;6.522;2023-12-20T01:05:58;10.70;80.30
28763;DHT22;15918;51.270;6.522;2023-12-20T01:08:23;10.70;80.30
28763;DHT22;15918;51.270;6.522;2023-12-20T01:10:49;10.70;80.20
28763;DHT22;15918;51.270;6.522;2023-12-20T01:13:14;10.70;80.30
28763;DHT22;15918;51.270;6.522;2023-12-20T01:15:40;10.70;80.10
28763;DHT22;15918;51.270;6.522;2023-12-20T01:18:06;10.60;80.00
28763;DHT22;15918;51.270;6.522;2023-12-20T01:20:31;10.70;80.10
28763;DHT22;15918;51.270;6.522;2023-12-20T01:22:57;10.60;79.90
28763;DHT22;15918;51.270;6.522;2023-12-20T01:25:22;10.60;79.90
28763;DHT22;15918;51.270;6.522;2023-12-20T01:27:48;10.70;79.90
28763;DHT22;15918;51.270;6.522;2023-12-20T01:30:14;10.70;79.80
28763;DHT22;15918;51.270;6.522;2023-12-20T01:32:40;10.70;79.70
28763;DHT22;15918;51.270;6.522;2023-12-20T01:35:06;10.60;79.60
28763;DHT22;15918;51.270;6.522;2023-12-20T01:37:31;10.70;79.60
28763;DHT22;15918;51.270;6.522;2023-12-20T01:39:57;10.60;80.40
28763;DHT22;15918;51.270;6.522;2023-12-20T01:42:24;10.60;79.50
28763;DHT22;15918;51.270;6.522;2023-12-20T01:44:49;10.60;79.40
28763;DHT22;15918;51.270;6.522;2023-12-20T01:47:15;10.60;79.40
28763;DHT22;15918;51.270;6.522;2023-12-20T01:49:41;10.60;79.30
28763;DHT22;15918;51.270;6.522;2023-12-20T01:52:07;10.60;79.10
28763;DHT22;15918;51.270;6.522;2023-12-20T01:54:34;10.60;79.10
28763;DHT22;15918;51.270;6.522;2023-12-20T01:57:01;10.60;79.00
28763;DHT22;15918;51.270;6.522;2023-12-20T01:59:26;10.60;79.10
28763;DHT22;15918;51.270;6.522;2023-12-20T02:01:53;10.60;79.00
28763;DHT22;15918;51.270;6.522;2023-12-20T02:04:19;10.60;78.90
28763;DHT22;15918;51.270;6.522;2023-12-20T02:06:46;10.60;78.70
28763;DHT22;15918;51.270;6.522;2023-12-20T02:09:11;10.60;78.70
28763;DHT22;15918;51.270;6.522;2023-12-20T02:11:38;10.60;78.60
28763;DHT22;15918;51.270;6.522;2023-12-20T02:14:04;10.50;78.50
28763;DHT22;15918;51.270;6.522;2023-12-20T02:16:30;10.60;78.50
28763;DHT22;15918;51.270;6.522;2023-12-20T02:18:55;10.50;78.30
28763;DHT22;15918;51.270;6.522;2023-12-20T02:21:33;10.50;78.20
28763;DHT22;15918;51.270;6.522;2023-12-20T02:24:02;10.50;78.00
28763;DHT22;15918;51.270;6.522;2023-12-20T02:26:27;10.50;78.20
28763;DHT22;15918;51.270;6.522;2023-12-20T02:28:54;10.50;78.10
28763;DHT22;15918;51.270;6.522;2023-12-20T02:31:23;10.50;78.00
28763;DHT22;15918;51.270;6.522;2023-12-20T02:33:49;10.50;78.00
28763;DHT22;15918;51.270;6.522;2023-12-20T02:36:14;10.40;78.00
28763;DHT22;15918;51.270;6.522;2023-12-20T02:38:40;10.40;78.00
28763;DHT22;15918;51.270;6.522;2023-12-20T02:41:05;10.40;78.00
28763;DHT22;15918;51.270;6.522;2023-12-20T02:43:31;10.40;78.00
28763;DHT22;15918;51.270;6.522;2023-12-20T02:45:57;10.40;77.80
28763;DHT22;15918;51.270;6.522;2023-12-20T02:48:22;10.40;78.00
28763;DHT22;15918;51.270;6.522;2023-12-20T02:50:48;10.40;77.90
28763;DHT22;15918;51.270;6.522;2023-12-20T02:53:14;10.40;77.80
28763;DHT22;15918;51.270;6.522;2023-12-20T02:55:40;10.40;77.80
28763;DHT22;15918;51.270;6.522;2023-12-20T02:58:05;10.40;77.70
28763;DHT22;15918;51.270;6.522;2023-12-20T03:00:31;10.40;77.70
28763;DHT22;15918;51.270;6.522;2023-12-20T03:02:56;10.40;77.70
28763;DHT22;15918;51.270;6.522;2023-12-20T03:05:22;10.30;77.50
28763;DHT22;15918;51.270;6.522;2023-12-20T03:07:48;10.30;77.50
28763;DHT22;15918;51.270;6.522;2023-12-20T03:10:13;10.30;77.40
28763;DHT22;15918;51.270;6.522;2023-12-20T03:12:39;10.30;77.40
28763;DHT22;15918;51.270;6.522;2023-12-20T03:15:04;10.30;77.40
28763;DHT22;15918;51.270;6.522;2023-12-20T03:17:30;10.30;77.30
28763;DHT22;15918;51.270;6.522;2023-12-20T03:19:56;10.30;77.40
28763;DHT22;15918;51.270;6.522;2023-12-20T03:22:22;10.30;77.40
28763;DHT22;15918;51.270;6.522;2023-12-20T03:24:47;10.30;77.30
28763;DHT22;15918;51.270;6.522;2023-12-20T03:27:13;10.30;77.30
28763;DHT22;15918;51.270;6.522;2023-12-20T03:29:38;10.20;77.30
28763;DHT22;15918;51.270;6.522;2023-12-20T03:32:04;10.20;77.30
28763;DHT22;15918;51.270;6.522;2023-12-20T03:34:30;10.20;77.30
28763;DHT22;15918;51.270;6.522;2023-12-20T03:36:55;10.20;77.30
28763;DHT22;15918;51.270;6.522;2023-12-20T03:39:21;10.20;77.30
28763;DHT22;15918;51.270;6.522;2023-12-20T03:41:46;10.20;77.20
28763;DHT22;15918;51.270;6.522;2023-12-20T03:44:12;10.20;77.10
28763;DHT22;15918;51.270;6.522;2023-12-20T03:46:37;10.20;77.10
28763;DHT22;15918;51.270;6.522;2023-12-20T03:49:03;10.20;77.10
28763;DHT22;15918;51.270;6.522;2023-12-20T03:51:29;10.20;77.00
28763;DHT22;15918;51.270;6.522;2023-12-20T03:53:54;10.20;77.10
28763;DHT22;15918;51.270;6.522;2023-12-20T03:56:20;10.20;77.10
28763;DHT22;15918;51.270;6.522;2023-12-20T03:58:45;10.20;77.10
28763;DHT22;15918;51.270;6.522;2023-12-20T04:01:11;10.10;77.00
28763;DHT22;15918;51.270;6.522;2023-12-20T04:03:38;10.10;76.90
28763;DHT22;15918;51.270;6.522;2023-12-20T04:06:04;10.10;76.80
28763;DHT22;15918;51.270;6.522;2023-12-20T04:08:30;10.10;76.80
28763;DHT22;15918;51.270;6.522;2023-12-20T04:10:55;10.10;76.70
28763;DHT22;15918;51.270;6.522;2023-12-20T04:13:21;10.10;76.60
28763;DHT22;15918;51.270;6.522;2023-12-20T04:15:46;10.10;76.50
28763;DHT22;15918;51.270;6.522;2023-12-20T04:18:12;10.10;76.60
28763;DHT22;15918;51.270;6.522;2023-12-20T04:20:37;10.10;76.60
28763;DHT22;15918;51.270;6.522;2023-12-20T04:23:03;10.10;76.50
28763;DHT22;15918;51.270;6.522;2023-12-20T04:25:29;10.10;76.50
28763;DHT22;15918;51.270;6.522;2023-12-20T04:27:54;10.10;76.60
28763;DHT22;15918;51.270;6.522;2023-12-20T04:30:20;10.10;76.60
28763;DHT22;15918;51.270;6.522;2023-12-20T04:32:45;10.00;76.50
28763;DHT22;15918;51.270;6.522;2023-12-20T04:35:11;10.00;76.50
28763;DHT22;15918;51.270;6.522;2023-12-20T04:37:36;10.00;76.50
28763;DHT22;15918;51.270;6.522;2023-12-20T04:40:02;10.00;76.40
28763;DHT22;15918;51.270;6.522;2023-12-20T04:42:28;10.00;76.40
28763;DHT22;15918;51.270;6.522;2023-12-20T04:44:54;10.00;76.40
28763;DHT22;15918;51.270;6.522;2023-12-20T04:47:19;10.00;76.40
28763;DHT22;15918;51.270;6.522;2023-12-20T04:49:45;10.00;76.40
28763;DHT22;15918;51.270;6.522;2023-12-20T04:52:10;10.00;76.40
28763;DHT22;15918;51.270;6.522;2023-12-20T04:54:36;10.00;76.50
28763;DHT22;15918;51.270;6.522;2023-12-20T04:57:02;10.00;76.50
28763;DHT22;15918;51.270;6.522;2023-12-20T04:59:27;10.00;76.50
28763;DHT22;15918;51.270;6.522;2023-12-20T05:01:53;10.00;76.40
28763;DHT22;15918;51.270;6.522;2023-12-20T05:04:18;10.00;76.40
28763;DHT22;15918;51.270;6.522;2023-12-20T05:06:44;10.00;76.40
28763;DHT22;15918;51.270;6.522;2023-12-20T05:09:10;10.00;76.50
28763;DHT22;15918;51.270;6.522;2023-12-20T05:11:35;10.00;76.50
28763;DHT22;15918;51.270;6.522;2023-12-20T05:14:01;10.00;76.50
28763;DHT22;15918;51.270;6.522;2023-12-20T05:16:26;10.00;76.50
28763;DHT22;15918;51.270;6.522;2023-12-20T05:18:52;10.00;76.50
28763;DHT22;15918;51.270;6.522;2023-12-20T05:21:18;10.00;76.50
28763;DHT22;15918;51.270;6.522;2023-12-20T05:23:44;10.00;76.50
28763;DHT22;15918;51.270;6.522;2023-12-20T05:26:09;10.00;76.50
28763;DHT22;15918;51.270;6.522;2023-12-20T05:28:35;10.00;76.50
28763;DHT22;15918;51.270;6.522;2023-12-20T05:31:00;10.00;76.50
28763;DHT22;15918;51.270;6.522;2023-12-20T05:33:26;10.00;76.40
28763;DHT22;15918;51.270;6.522;2023-12-20T05:35:51;9.90;76.40
28763;DHT22;15918;51.270;6.522;2023-12-20T05:38:17;10.00;76.40
28763;DHT22;15918;51.270;6.522;2023-12-20T05:40:42;9.90;76.40
28763;DHT22;15918;51.270;6.522;2023-12-20T05:43:08;9.90;76.40
28763;DHT22;15918;51.270;6.522;2023-12-20T05:45:34;9.90;76.40
28763;DHT22;15918;51.270;6.522;2023-12-20T05:47:59;9.90;76.40
28763;DHT22;15918;51.270;6.522;2023-12-20T05:50:25;9.90;76.40
28763;DHT22;15918;51.270;6.522;2023-12-20T05:52:51;9.90;76.40
28763;DHT22;15918;51.270;6.522;2023-12-20T05:55:16;9.90;76.40
28763;DHT22;15918;51.270;6.522;2023-12-20T05:57:42;9.90;76.40
28763;DHT22;15918;51.270;6.522;2023-12-20T06:00:09;9.90;76.40
28763;DHT22;15918;51.270;6.522;2023-12-20T06:02:35;9.90;76.50
28763;DHT22;15918;51.270;6.522;2023-12-20T06:05:03;9.90;76.50
28763;DHT22;15918;51.270;6.522;2023-12-20T06:07:29;9.90;76.50
28763;DHT22;15918;51.270;6.522;2023-12-20T06:09:55;9.90;76.60
28763;DHT22;15918;51.270;6.522;2023-12-20T06:12:20;9.90;76.60
28763;DHT22;15918;51.270;6.522;2023-12-20T06:14:46;9.90;76.60
28763;DHT22;15918;51.270;6.522;2023-12-20T06:17:11;9.90;76.60
28763;DHT22;15918;51.270;6.522;2023-12-20T06:19:37;9.90;76.70
28763;DHT22;15918;51.270;6.522;2023-12-20T06:22:03;9.90;76.80
28763;DHT22;15918;51.270;6.522;2023-12-20T06:24:28;9.90;76.70
28763;DHT22;15918;51.270;6.522;2023-12-20T06:26:55;9.90;76.70
28763;DHT22;15918;51.270;6.522;2023-12-20T06:29:21;9.90;76.70
28763;DHT22;15918;51.270;6.522;2023-12-20T06:31:46;9.90;76.80
28763;DHT22;15918;51.270;6.522;2023-12-20T06:34:12;9.90;76.80
28763;DHT22;15918;51.270;6.522;2023-12-20T06:36:37;9.90;77.50
28763;DHT22;15918;51.270;6.522;2023-12-20T06:39:03;9.90;76.80
28763;DHT22;15918;51.270;6.522;2023-12-20T06:41:30;9.90;76.80
28763;DHT22;15918;51.270;6.522;2023-12-20T06:43:55;9.90;76.80
28763;DHT22;15918;51.270;6.522;2023-12-20T06:46:21;9.90;76.90
28763;DHT22;15918;51.270;6.522;2023-12-20T06:48:46;9.90;76.90
28763;DHT22;15918;51.270;6.522;2023-12-20T06:51:14;9.90;76.90
28763;DHT22;15918;51.270;6.522;2023-12-20T06:53:40;9.90;76.80
28763;DHT22;15918;51.270;6.522;2023-12-20T06:56:06;9.90;76.80
28763;DHT22;15918;51.270;6.522;2023-12-20T06:58:32;9.90;76.80
28763;DHT22;15918;51.270;6.522;2023-12-20T07:00:58;9.90;76.80
28763;DHT22;15918;51.270;6.522;2023-12-20T07:03:24;9.90;76.80
28763;DHT22;15918;51.270;6.522;2023-12-20T07:05:49;9.90;76.80
28763;DHT22;15918;51.270;6.522;2023-12-20T07:08:15;9.90;76.80
28763;DHT22;15918;51.270;6.522;2023-12-20T07:10:41;9.90;76.80
28763;DHT22;15918;51.270;6.522;2023-12-20T07:13:07;9.90;76.80
28763;DHT22;15918;51.270;6.522;2023-12-20T07:15:33;9.90;76.80
28763;DHT22;15918;51.270;6.522;2023-12-20T07:17:58;9.90;76.80
28763;DHT22;15918;51.270;6.522;2023-12-20T07:20:26;9.90;76.70
28763;DHT22;15918;51.270;6.522;2023-12-20T07:22:51;9.90;76.70
28763;DHT22;15918;51.270;6.522;2023-12-20T07:25:17;9.90;76.80
28763;DHT22;15918;51.270;6.522;2023-12-20T07:27:43;9.90;76.70
28763;DHT22;15918;51.270;6.522;2023-12-20T07:30:09;9.90;76.60
28763;DHT22;15918;51.270;6.522;2023-12-20T07:32:34;9.90;76.70
28763;DHT22;15918;51.270;6.522;2023-12-20T07:35:00;9.90;76.70
28763;DHT22;15918;51.270;6.522;2023-12-20T07:37:26;9.90;76.70
28763;DHT22;15918;51.270;6.522;2023-12-20T07:39:51;9.90;76.60
28763;DHT22;15918;51.270;6.522;2023-12-20T07:42:17;9.90;76.60
28763;DHT22;15918;51.270;6.522;2023-12-20T07:44:42;9.90;76.50
28763;DHT22;15918;51.270;6.522;2023-12-20T07:47:08;9.90;76.60
28763;DHT22;15918;51.270;6.522;2023-12-20T07:49:33;9.90;76.60
28763;DHT22;15918;51.270;6.522;2023-12-20T07:51:59;10.00;76.60
28763;DHT22;15918;51.270;6.522;2023-12-20T07:54:24;9.90;76.50
28763;DHT22;15918;51.270;6.522;2023-12-20T07:56:50;9.90;76.40
28763;DHT22;15918;51.270;6.522;2023-12-20T07:59:16;9.90;77.20
28763;DHT22;15918;51.270;6.522;2023-12-20T08:01:41;9.90;76.40
28763;DHT22;15918;51.270;6.522;2023-12-20T08:04:08;9.90;76.40
28763;DHT22;15918;51.270;6.522;2023-12-20T08:06:33;9.90;76.30
28763;DHT22;15918;51.270;6.522;2023-12-20T08:08:59;9.90;76.20
28763;DHT22;15918;51.270;6.522;2023-12-20T08:11:24;9.90;76.20
28763;DHT22;15918;51.270;6.522;2023-12-20T08:13:50;10.00;76.20
28763;DHT22;15918;51.270;6.522;2023-12-20T08:16:16;10.00;76.20
28763;DHT22;15918;51.270;6.522;2023-12-20T08:18:43;10.00;76.20
28763;DHT22;15918;51.270;6.522;2023-12-20T08:21:08;10.00;76.50
28763;DHT22;15918;51.270;6.522;2023-12-20T08:23:34;10.00;76.20
28763;DHT22;15918;51.270;6.522;2023-12-20T08:26:07;10.00;76.10
28763;DHT22;15918;51.270;6.522;2023-12-20T08:28:33;10.00;75.90
28763;DHT22;15918;51.270;6.522;2023-12-20T08:30:59;10.00;76.10
28763;DHT22;15918;51.270;6.522;2023-12-20T08:33:24;9.90;76.00
28763;DHT22;15918;51.270;6.522;2023-12-20T08:35:50;10.00;76.00
28763;DHT22;15918;51.270;6.522;2023-12-20T08:38:15;10.00;76.10
28763;DHT22;15918;51.270;6.522;2023-12-20T08:40:42;9.90;76.00
28763;DHT22;15918;51.270;6.522;2023-12-20T08:43:07;9.90;76.00
28763;DHT22;15918;51.270;6.522;2023-12-20T08:45:33;9.90;75.90
28763;DHT22;15918;51.270;6.522;2023-12-20T08:47:59;9.90;75.80
28763;DHT22;15918;51.270;6.522;2023-12-20T08:50:25;10.00;76.00
28763;DHT22;15918;51.270;6.522;2023-12-20T08:52:51;10.00;75.90
28763;DHT22;15918;51.270;6.522;2023-12-20T08:55:16;10.00;76.00
28763;DHT22;15918;51.270;6.522;2023-12-20T08:57:43;10.00;76.10
28763;DHT22;15918;51.270;6.522;2023-12-20T09:00:09;10.00;76.00
28763;DHT22;15918;51.270;6.522;2023-12-20T09:02:35;10.00;75.90
28763;DHT22;15918;51.270;6.522;2023-12-20T09:05:02;10.00;75.90
28763;DHT22;15918;51.270;6.522;2023-12-20T09:07:27;10.00;75.80
28763;DHT22;15918;51.270;6.522;2023-12-20T09:09:55;10.00;75.90
28763;DHT22;15918;51.270;6.522;2023-12-20T09:12:21;10.00;75.90
28763;DHT22;15918;51.270;6.522;2023-12-20T09:14:47;10.00;75.80
28763;DHT22;15918;51.270;6.522;2023-12-20T09:17:13;10.00;75.80
28763;DHT22;15918;51.270;6.522;2023-12-20T09:19:39;10.00;75.80
28763;DHT22;15918;51.270;6.522;2023-12-20T09:22:05;10.00;75.80
28763;DHT22;15918;51.270;6.522;2023-12-20T09:24:31;10.00;75.80
28763;DHT22;15918;51.270;6.522;2023-12-20T09:26:56;10.00;75.80
28763;DHT22;15918;51.270;6.522;2023-12-20T09:29:23;10.00;75.70
28763;DHT22;15918;51.270;6.522;2023-12-20T09:31:48;10.00;75.70
28763;DHT22;15918;51.270;6.522;2023-12-20T09:34:15;10.00;76.50
28763;DHT22;15918;51.270;6.522;2023-12-20T09:36:42;10.00;75.70
28763;DHT22;15918;51.270;6.522;2023-12-20T09:39:13;10.00;75.60
28763;DHT22;15918;51.270;6.522;2023-12-20T09:41:43;10.00;75.60
28763;DHT22;15918;51.270;6.522;2023-12-20T09:44:14;10.00;75.70
28763;DHT22;15918;51.270;6.522;2023-12-20T09:46:43;10.00;75.70
28763;DHT22;15918;51.270;6.522;2023-12-20T09:49:10;10.00;75.70
28763;DHT22;15918;51.270;6.522;2023-12-20T09:51:36;10.00;75.70
28763;DHT22;15918;51.270;6.522;2023-12-20T09:54:03;10.00;75.70
28763;DHT22;15918;51.270;6.522;2023-12-20T09:56:30;10.00;75.60
28763;DHT22;15918;51.270;6.522;2023-12-20T09:58:56;10.00;75.70
28763;DHT22;15918;51.270;6.522;2023-12-20T10:01:23;10.00;75.60
28763;DHT22;15918;51.270;6.522;2023-12-20T10:03:50;10.00;75.60
28763;DHT22;15918;51.270;6.522;2023-12-20T10:06:16;10.00;75.50
28763;DHT22;15918;51.270;6.522;2023-12-20T10:08:42;10.00;75.60
28763;DHT22;15918;51.270;6.522;2023-12-20T10:11:08;10.00;75.60
28763;DHT22;15918;51.270;6.522;2023-12-20T10:13:34;10.00;75.60
28763;DHT22;15918;51.270;6.522;2023-12-20T10:15:59;10.00;75.60
28763;DHT22;15918;51.270;6.522;2023-12-20T10:18:26;10.00;75.50
28763;DHT22;15918;51.270;6.522;2023-12-20T10:20:54;10.00;75.60
28763;DHT22;15918;51.270;6.522;2023-12-20T10:23:19;10.00;76.30
28763;DHT22;15918;51.270;6.522;2023-12-20T10:25:56;10.00;75.60
28763;DHT22;15918;51.270;6.522;2023-12-20T10:28:22;10.10;75.50
28763;DHT22;15918;51.270;6.522;2023-12-20T10:30:50;10.00;75.70
28763;DHT22;15918;51.270;6.522;2023-12-20T10:33:26;10.00;75.70
28763;DHT22;15918;51.270;6.522;2023-12-20T10:35:52;10.10;75.60
28763;DHT22;15918;51.270;6.522;2023-12-20T10:38:18;10.00;75.80
28763;DHT22;15918;51.270;6.522;2023-12-20T10:40:45;10.10;75.80
28763;DHT22;15918;51.270;6.522;2023-12-20T10:43:11;10.00;75.70
28763;DHT22;15918;51.270;6.522;2023-12-20T10:45:38;10.10;75.80
28763;DHT22;15918;51.270;6.522;2023-12-20T10:48:04;10.10;75.70
28763;DHT22;15918;51.270;6.522;2023-12-20T10:50:31;10.10;75.70
28763;DHT22;15918;51.270;6.522;2023-12-20T10:52:57;10.10;75.70
28763;DHT22;15918;51.270;6.522;2023-12-20T10:55:23;10.10;75.60
28763;DHT22;15918;51.270;6.522;2023-12-20T10:58:06;10.10;75.60
28763;DHT22;15918;51.270;6.522;2023-12-20T11:00:33;10.10;75.50
28763;DHT22;15918;51.270;6.522;2023-12-20T11:03:01;10.10;75.70
28763;DHT22;15918;51.270;6.522;2023-12-20T11:05:38;10.10;75.60
28763;DHT22;15918;51.270;6.522;2023-12-20T11:08:09;10.20;75.50
28763;DHT22;15918;51.270;6.522;2023-12-20T11:13:23;10.20;75.60
28763;DHT22;15918;51.270;6.522;2023-12-20T11:15:52;10.20;75.60
28763;DHT22;15918;51.270;6.522;2023-12-20T11:18:18;10.10;75.80
28763;DHT22;15918;51.270;6.522;2023-12-20T11:20:43;10.10;75.60
28763;DHT22;15918;51.270;6.522;2023-12-20T11:23:09;10.20;75.70
28763;DHT22;15918;51.270;6.522;2023-12-20T11:25:56;10.20;75.70
28763;DHT22;15918;51.270;6.522;2023-12-20T11:28:25;10.20;75.50
28763;DHT22;15918;51.270;6.522;2023-12-20T11:30:55;10.10;75.80
28763;DHT22;15918;51.270;6.522;2023-12-20T11:33:22;10.20;75.80
28763;DHT22;15918;51.270;6.522;2023-12-20T11:35:48;10.20;75.70
28763;DHT22;15918;51.270;6.522;2023-12-20T11:38:14;10.20;75.70
28763;DHT22;15918;51.270;6.522;2023-12-20T11:40:42;10.20;75.60
28763;DHT22;15918;51.270;6.522;2023-12-20T11:43:08;10.20;75.70
28763;DHT22;15918;51.270;6.522;2023-12-20T11:45:34;10.20;75.70
28763;DHT22;15918;51.270;6.522;2023-12-20T11:48:03;10.20;75.70
28763;DHT22;15918;51.270;6.522;2023-12-20T11:50:29;10.20;75.70
28763;DHT22;15918;51.270;6.522;2023-12-20T11:52:56;10.20;75.70
28763;DHT22;15918;51.270;6.522;2023-12-20T11:55:22;10.20;75.70
28763;DHT22;15918;51.270;6.522;2023-12-20T11:57:50;10.20;75.70
28763;DHT22;15918;51.270;6.522;2023-12-20T12:00:16;10.20;75.70
28763;DHT22;15918;51.270;6.522;2023-12-20T12:02:41;10.20;75.70
28763;DHT22;15918;51.270;6.522;2023-12-20T12:05:07;10.20;75.80
28763;DHT22;15918;51.270;6.522;2023-12-20T12:07:34;10.20;75.70
28763;DHT22;15918;51.270;6.522;2023-12-20T12:10:00;10.20;75.70
28763;DHT22;15918;51.270;6.522;2023-12-20T12:12:26;10.20;75.70
28763;DHT22;15918;51.270;6.522;2023-12-20T12:14:53;10.20;75.70
28763;DHT22;15918;51.270;6.522;2023-12-20T12:17:19;10.20;75.80
28763;DHT22;15918;51.270;6.522;2023-12-20T12:19:45;10.20;75.90
28763;DHT22;15918;51.270;6.522;2023-12-20T12:22:12;10.20;75.80
28763;DHT22;15918;51.270;6.522;2023-12-20T12:24:40;10.20;75.80
28763;DHT22;15918;51.270;6.522;2023-12-20T12:27:06;10.20;75.90
28763;DHT22;15918;51.270;6.522;2023-12-20T12:29:33;10.20;75.90
28763;DHT22;15918;51.270;6.522;2023-12-20T12:31:59;10.20;75.90
28763;DHT22;15918;51.270;6.522;2023-12-20T12:34:27;10.20;76.00
28763;DHT22;15918;51.270;6.522;2023-12-20T12:36:53;10.20;76.00
28763;DHT22;15918;51.270;6.522;2023-12-20T12:39:19;10.20;76.10
28763;DHT22;15918;51.270;6.522;2023-12-20T12:41:45;10.20;76.10
28763;DHT22;15918;51.270;6.522;2023-12-20T12:44:10;10.20;76.10
28763;DHT22;15918;51.270;6.522;2023-12-20T12:46:36;10.30;76.20
28763;DHT22;15918;51.270;6.522;2023-12-20T12:49:01;10.30;76.30
28763;DHT22;15918;51.270;6.522;2023-12-20T12:51:27;10.30;76.50
28763;DHT22;15918;51.270;6.522;2023-12-20T12:53:53;10.30;76.60
28763;DHT22;15918;51.270;6.522;2023-12-20T12:56:19;10.30;76.80
28763;DHT22;15918;51.270;6.522;2023-12-20T12:58:44;10.30;76.90
28763;DHT22;15918;51.270;6.522;2023-12-20T13:01:10;10.30;77.00
28763;DHT22;15918;51.270;6.522;2023-12-20T13:03:36;10.30;77.20
28763;DHT22;15918;51.270;6.522;2023-12-20T13:06:02;10.20;77.20
28763;DHT22;15918;51.270;6.522;2023-12-20T13:08:28;10.30;77.40
28763;DHT22;15918;51.270;6.522;2023-12-20T13:10:54;10.30;77.40
28763;DHT22;15918;51.270;6.522;2023-12-20T13:13:20;10.30;77.50
28763;DHT22;15918;51.270;6.522;2023-12-20T13:15:46;10.30;77.60
28763;DHT22;15918;51.270;6.522;2023-12-20T13:18:16;10.30;77.60
28763;DHT22;15918;51.270;6.522;2023-12-20T13:20:43;10.30;77.70
28763;DHT22;15918;51.270;6.522;2023-12-20T13:23:09;10.30;77.70
28763;DHT22;15918;51.270;6.522;2023-12-20T13:25:34;10.30;77.70
28763;DHT22;15918;51.270;6.522;2023-12-20T13:28:00;10.30;77.80
28763;DHT22;15918;51.270;6.522;2023-12-20T13:30:26;10.30;77.80
28763;DHT22;15918;51.270;6.522;2023-12-20T13:32:51;10.30;77.90
28763;DHT22;15918;51.270;6.522;2023-12-20T13:35:17;10.30;77.90
28763;DHT22;15918;51.270;6.522;2023-12-20T13:37:42;10.30;77.90
28763;DHT22;15918;51.270;6.522;2023-12-20T13:40:10;10.30;78.10
28763;DHT22;15918;51.270;6.522;2023-12-20T13:42:35;10.30;78.10
28763;DHT22;15918;51.270;6.522;2023-12-20T13:45:01;10.30;78.20
28763;DHT22;15918;51.270;6.522;2023-12-20T13:47:27;10.30;78.10
28763;DHT22;15918;51.270;6.522;2023-12-20T13:49:52;10.30;78.10
28763;DHT22;15918;51.270;6.522;2023-12-20T13:52:18;10.30;78.10
28763;DHT22;15918;51.270;6.522;2023-12-20T13:54:44;10.30;78.20
28763;DHT22;15918;51.270;6.522;2023-12-20T13:57:09;10.30;78.20
28763;DHT22;15918;51.270;6.522;2023-12-20T13:59:35;10.30;78.20
28763;DHT22;15918;51.270;6.522;2023-12-20T14:02:00;10.30;78.20
28763;DHT22;15918;51.270;6.522;2023-12-20T14:04:28;10.30;78.10
28763;DHT22;15918;51.270;6.522;2023-12-20T14:06:53;10.30;78.10
28763;DHT22;15918;51.270;6.522;2023-12-20T14:09:19;10.30;78.00
28763;DHT22;15918;51.270;6.522;2023-12-20T14:11:45;10.30;78.00
28763;DHT22;15918;51.270;6.522;2023-12-20T14:14:11;10.30;78.00
28763;DHT22;15918;51.270;6.522;2023-12-20T14:16:36;10.30;78.00
28763;DHT22;15918;51.270;6.522;2023-12-20T14:19:03;10.30;78.00
28763;DHT22;15918;51.270;6.522;2023-12-20T14:21:29;10.30;78.00
28763;DHT22;15918;51.270;6.522;2023-12-20T14:23:54;10.30;78.10
28763;DHT22;15918;51.270;6.522;2023-12-20T14:26:20;10.30;78.10
28763;DHT22;15918;51.270;6.522;2023-12-20T14:28:46;10.30;78.20
28763;DHT22;15918;51.270;6.522;2023-12-20T14:31:11;10.30;78.10
28763;DHT22;15918;51.270;6.522;2023-12-20T14:33:37;10.30;78.20
28763;DHT22;15918;51.270;6.522;2023-12-20T14:36:05;10.30;78.10
28763;DHT22;15918;51.270;6.522;2023-12-20T14:38:34;10.40;78.20
28763;DHT22;15918;51.270;6.522;2023-12-20T14:41:00;10.40;78.20
28763;DHT22;15918;51.270;6.522;2023-12-20T14:43:26;10.30;78.20
28763;DHT22;15918;51.270;6.522;2023-12-20T14:45:52;10.40;78.30
28763;DHT22;15918;51.270;6.522;2023-12-20T14:48:18;10.40;78.30
28763;DHT22;15918;51.270;6.522;2023-12-20T14:50:44;10.40;78.20
28763;DHT22;15918;51.270;6.522;2023-12-20T14:53:09;10.40;78.20
28763;DHT22;15918;51.270;6.522;2023-12-20T14:55:35;10.40;78.20
28763;DHT22;15918;51.270;6.522;2023-12-20T14:58:01;10.30;78.20
28763;DHT22;15918;51.270;6.522;2023-12-20T15:00:27;10.40;78.30
28763;DHT22;15918;51.270;6.522;2023-12-20T15:02:54;10.40;78.30
28763;DHT22;15918;51.270;6.522;2023-12-20T15:05:20;10.40;78.30
28763;DHT22;15918;51.270;6.522;2023-12-20T15:07:45;10.40;78.30
28763;DHT22;15918;51.270;6.522;2023-12-20T15:10:13;10.30;78.20
28763;DHT22;15918;51.270;6.522;2023-12-20T15:12:39;10.40;78.20
28763;DHT22;15918;51.270;6.522;2023-12-20T15:15:05;10.40;78.20
28763;DHT22;15918;51.270;6.522;2023-12-20T15:17:31;10.40;78.20
28763;DHT22;15918;51.270;6.522;2023-12-20T15:19:56;10.40;78.30
28763;DHT22;15918;51.270;6.522;2023-12-20T15:22:22;10.40;78.20
28763;DHT22;15918;51.270;6.522;2023-12-20T15:24:47;10.40;78.20
28763;DHT22;15918;51.270;6.522;2023-12-20T15:27:13;10.40;78.10